Time;durP1;ratioP1;P1;durP2;ratioP2;P2;SDS_P1;SDS_P2;PMS_P1;PMS_P2;Temp;Humidity;BMP_temperature;BMP_pressure;BME280_temperature;BME280_humidity;BME280_pressure;Samples;Min_cycle;Max_cycle;Signal;HPM_P1;HPM_P2
2023/06/26 00:01:17;;;;;;;;;;;;;;;26.52;41.57;101653.63;5058303;28;19924;-80
2023/06/26 00:03:42;;;;;;;;;;;;;;;26.49;41.68;101644.91;5056816;28;19921;-80
2023/06/26 00:06:07;;;;;;;;;;;;;;;26.46;41.92;101650.28;5061018;28;19989;-79
2023/06/26 00:08:33;;;;;;;;;;;;;;;26.43;41.86;101650.94;5053833;28;19924;-79
2023/06/26 00:10:58;;;;;;;;;;;;;;;26.39;41.83;101650.81;5059234;28;19948;-79
2023/06/26 00:13:24;;;;;;;;;;;;;;;26.36;41.96;101651.47;5059504;28;19920;-79
2023/06/26 00:15:49;;;;;;;;;;;;;;;26.33;41.91;101641.09;5057053;28;20396;-79
2023/06/26 00:18:15;;;;;;;;;;;;;;;26.32;41.93;101652.44;5058619;28;20431;-79
2023/06/26 00:20:40;;;;;;;;;;;;;;;26.29;42.01;101648.41;5059560;28;19966;-79
2023/06/26 00:23:07;;;;;;;;;;;;;;;26.27;41.95;101649.88;5056748;28;19921;-80
2023/06/26 00:25:35;;;;;;;;;;;;;;;26.25;41.92;101646.66;5059332;28;19920;-79
2023/06/26 00:28:01;;;;;;;;;;;;;;;26.23;41.98;101651.69;5059047;28;20733;-80
2023/06/26 00:30:26;;;;;;;;;;;;;;;26.20;42.08;101642.16;5059107;28;20007;-80
2023/06/26 00:32:52;;;;;;;;;;;;;;;26.18;42.20;101637.00;5057333;28;19925;-79
2023/06/26 00:35:17;;;;;;;;;;;;;;;26.13;42.17;101639.94;5058331;28;20298;-79
2023/06/26 00:37:43;;;;;;;;;;;;;;;26.08;42.17;101637.38;5059482;28;19939;-80
2023/06/26 00:40:08;;;;;;;;;;;;;;;26.03;42.18;101632.09;5062214;28;19916;-79
2023/06/26 00:42:34;;;;;;;;;;;;;;;26.02;42.20;101624.97;5060691;28;19921;-79
2023/06/26 00:44:59;;;;;;;;;;;;;;;25.98;42.36;101628.72;5063599;28;20298;-79
2023/06/26 00:47:25;;;;;;;;;;;;;;;25.95;42.34;101630.19;5063135;28;19969;-80
2023/06/26 00:49:51;;;;;;;;;;;;;;;25.94;42.28;101631.31;5057188;28;19920;-79
2023/06/26 00:52:17;;;;;;;;;;;;;;;25.94;42.33;101633.25;5060936;28;19970;-79
2023/06/26 00:54:42;;;;;;;;;;;;;;;25.93;42.56;101631.66;5061978;28;19943;-80
2023/06/26 00:57:08;;;;;;;;;;;;;;;25.90;42.36;101627.63;5058235;28;19923;-79
2023/06/26 00:59:34;;;;;;;;;;;;;;;25.88;42.58;101627.97;5059829;28;19971;-79
2023/06/26 01:01:59;;;;;;;;;;;;;;;25.86;42.53;101634.94;5056465;28;19978;-80
2023/06/26 01:04:27;;;;;;;;;;;;;;;25.83;42.83;101624.56;5063513;28;19928;-80
2023/06/26 01:06:53;;;;;;;;;;;;;;;25.82;42.81;101622.97;5062762;28;20891;-79
2023/06/26 01:09:19;;;;;;;;;;;;;;;25.83;42.83;101619.09;5061949;28;19916;-80
2023/06/26 01:11:45;;;;;;;;;;;;;;;25.83;42.84;101617.16;5064197;28;19938;-80
2023/06/26 01:14:10;;;;;;;;;;;;;;;25.84;42.99;101610.53;5065572;28;19917;-79
2023/06/26 01:16:37;;;;;;;;;;;;;;;25.84;42.85;101610.53;5061371;28;19920;-79
2023/06/26 01:19:08;;;;;;;;;;;;;;;25.85;43.03;101614.06;5061216;28;19916;-79
2023/06/26 01:21:35;;;;;;;;;;;;;;;25.85;42.96;101609.41;5062503;28;19928;-80
2023/06/26 01:24:04;;;;;;;;;;;;;;;25.87;43.06;101611.81;5065046;28;20341;-79
2023/06/26 01:26:30;;;;;;;;;;;;;;;25.90;42.91;101602.94;5064409;28;19931;-79
2023/06/26 01:28:57;;;;;;;;;;;;;;;25.94;42.99;101608.56;5060655;28;20008;-79
2023/06/26 01:31:22;;;;;;;;;;;;;;;25.96;42.92;101607.09;5060242;28;19946;-79
2023/06/26 01:33:49;;;;;;;;;;;;;;;25.99;43.07;101605.59;5059453;28;19917;-79
2023/06/26 01:36:14;;;;;;;;;;;;;;;26.00;43.05;101599.78;5060253;28;20010;-79
2023/06/26 01:38:40;;;;;;;;;;;;;;;26.04;43.21;101608.19;5058166;28;20368;-80
2023/06/26 01:41:06;;;;;;;;;;;;;;;26.03;43.30;101604.63;5063766;28;19939;-79
2023/06/26 01:43:50;;;;;;;;;;;;;;;26.02;43.42;101608.50;5061502;28;20312;-79
2023/06/26 01:46:15;;;;;;;;;;;;;;;26.01;43.50;101598.66;5059149;28;19920;-80
2023/06/26 01:48:46;;;;;;;;;;;;;;;26.02;43.48;101599.44;5060683;28;20553;-79
2023/06/26 01:51:14;;;;;;;;;;;;;;;26.04;43.48;101594.47;5062084;28;19933;-79
2023/06/26 01:53:44;;;;;;;;;;;;;;;26.06;43.56;101592.19;5058865;28;19926;-79
2023/06/26 01:56:15;;;;;;;;;;;;;;;26.04;43.56;101589.78;5054915;28;20331;-79
2023/06/26 01:58:43;;;;;;;;;;;;;;;26.04;43.60;101581.53;5061024;28;20003;-79
2023/06/26 02:01:09;;;;;;;;;;;;;;;26.03;43.70;101573.59;5058497;28;19924;-79
2023/06/26 02:03:34;;;;;;;;;;;;;;;26.02;43.74;101582.97;5061606;28;20337;-80
2023/06/26 02:05:59;;;;;;;;;;;;;;;26.01;43.72;101576.69;5059111;28;19927;-79
2023/06/26 02:08:25;;;;;;;;;;;;;;;26.00;43.86;101575.06;5065218;28;19924;-79
2023/06/26 02:10:50;;;;;;;;;;;;;;;25.99;43.83;101572.66;5061580;28;19916;-79
2023/06/26 02:13:15;;;;;;;;;;;;;;;26.00;44.02;101574.25;5057644;28;20295;-79
2023/06/26 02:15:41;;;;;;;;;;;;;;;25.99;44.00;101572.66;5064348;28;20392;-79
2023/06/26 02:18:06;;;;;;;;;;;;;;;25.97;44.07;101570.25;5062356;28;19922;-80
2023/06/26 02:20:33;;;;;;;;;;;;;;;25.97;44.16;101574.94;5056094;28;19921;-80
2023/06/26 02:22:58;;;;;;;;;;;;;;;25.99;44.21;101569.91;5057139;28;21902;-80
2023/06/26 02:25:24;;;;;;;;;;;;;;;26.00;44.36;101572.31;5062142;28;19928;-79
2023/06/26 02:27:49;;;;;;;;;;;;;;;26.03;44.24;101566.19;5058328;28;19966;-79
2023/06/26 02:30:14;;;;;;;;;;;;;;;26.08;43.99;101562.44;5060831;28;19959;-80
2023/06/26 02:32:39;;;;;;;;;;;;;;;26.09;44.17;101567.59;5057522;28;19916;-79
2023/06/26 02:35:05;;;;;;;;;;;;;;;26.08;44.11;101566.00;5057075;28;19925;-79
2023/06/26 02:37:30;;;;;;;;;;;;;;;26.08;44.08;101554.19;5056756;28;19923;-79
2023/06/26 02:39:55;;;;;;;;;;;;;;;26.08;44.22;101560.50;5062972;28;19927;-79
2023/06/26 02:42:21;;;;;;;;;;;;;;;26.10;44.29;101565.66;5060663;28;20512;-80
2023/06/26 02:44:46;;;;;;;;;;;;;;;26.12;44.26;101560.63;5054803;28;19917;-79
2023/06/26 02:47:11;;;;;;;;;;;;;;;26.10;44.35;101563.72;5058234;28;19920;-80
2023/06/26 02:49:37;;;;;;;;;;;;;;;26.09;44.52;101555.81;5059502;28;19917;-79
2023/06/26 02:52:02;;;;;;;;;;;;;;;26.08;44.60;101560.50;5054289;28;20372;-79
2023/06/26 02:54:27;;;;;;;;;;;;;;;26.09;44.51;101559.34;5059870;28;19920;-79
2023/06/26 02:56:53;;;;;;;;;;;;;;;26.12;44.57;101558.69;5058210;28;20277;-79
2023/06/26 02:59:18;;;;;;;;;;;;;;;26.13;44.65;101557.53;5060546;28;20370;-79
2023/06/26 03:01:43;;;;;;;;;;;;;;;26.13;44.79;101560.28;5065646;28;19920;-79
2023/06/26 03:04:10;;;;;;;;;;;;;;;26.14;44.75;101558.34;5062477;28;19916;-79
2023/06/26 03:06:35;;;;;;;;;;;;;;;26.14;44.70;101550.91;5067217;28;20006;-81
2023/06/26 03:09:00;;;;;;;;;;;;;;;26.14;44.52;101553.66;5064851;28;20023;-79
2023/06/26 03:11:26;;;;;;;;;;;;;;;26.13;44.67;101551.25;5061627;28;20386;-79
2023/06/26 03:13:51;;;;;;;;;;;;;;;26.12;44.99;101549.66;5061315;28;19921;-79
2023/06/26 03:16:16;;;;;;;;;;;;;;;26.10;45.05;101551.94;5065995;28;20422;-79
2023/06/26 03:18:42;;;;;;;;;;;;;;;26.05;45.17;101549.38;5064830;28;19916;-79
2023/06/26 03:21:08;;;;;;;;;;;;;;;26.04;45.21;101548.56;5062256;28;19916;-79
2023/06/26 03:23:34;;;;;;;;;;;;;;;26.09;45.02;101547.56;5064672;28;19921;-79
2023/06/26 03:25:59;;;;;;;;;;;;;;;26.13;44.98;101548.50;5062037;28;20345;-79
2023/06/26 03:28:24;;;;;;;;;;;;;;;26.17;44.88;101546.69;5067264;28;19923;-79
2023/06/26 03:30:50;;;;;;;;;;;;;;;26.22;44.59;101546.50;5063400;28;20554;-80
2023/06/26 03:33:15;;;;;;;;;;;;;;;26.27;44.35;101542.75;5064922;28;19920;-79
2023/06/26 03:35:40;;;;;;;;;;;;;;;26.32;44.34;101539.78;5065735;28;20411;-79
2023/06/26 03:38:06;;;;;;;;;;;;;;;26.34;44.24;101530.06;5065040;28;19928;-80
2023/06/26 03:40:31;;;;;;;;;;;;;;;26.38;44.31;101531.03;5065178;28;19939;-79
2023/06/26 03:42:56;;;;;;;;;;;;;;;26.40;44.61;101531.53;5063842;28;20066;-80
2023/06/26 03:45:22;;;;;;;;;;;;;;;26.41;44.64;101532.34;5064252;28;19917;-79
2023/06/26 03:47:49;;;;;;;;;;;;;;;26.43;44.60;101533.59;5065551;28;20415;-79
2023/06/26 03:50:15;;;;;;;;;;;;;;;26.46;44.50;101521.13;5064928;28;19925;-79
2023/06/26 03:52:40;;;;;;;;;;;;;;;26.51;44.64;101529.16;5064894;28;19927;-79
2023/06/26 03:55:05;;;;;;;;;;;;;;;26.53;44.47;101529.63;5061953;28;19946;-79
2023/06/26 03:57:31;;;;;;;;;;;;;;;26.58;44.52;101531.38;5065935;28;19916;-79
2023/06/26 03:59:56;;;;;;;;;;;;;;;26.62;44.58;101524.06;5061086;28;20285;-79
2023/06/26 04:02:22;;;;;;;;;;;;;;;26.68;44.34;101526.25;5067239;28;19925;-80
2023/06/26 04:04:48;;;;;;;;;;;;;;;26.76;44.25;101530.88;5063544;28;20407;-79
2023/06/26 04:07:13;;;;;;;;;;;;;;;26.84;44.25;101520.13;5063748;28;19925;-79
2023/06/26 04:09:38;;;;;;;;;;;;;;;26.89;44.16;101517.16;5062291;28;19916;-79
2023/06/26 04:12:04;;;;;;;;;;;;;;;26.92;44.18;101519.22;5059709;28;19917;-79
2023/06/26 04:14:29;;;;;;;;;;;;;;;26.98;44.37;101520.63;5063618;28;19974;-79
2023/06/26 04:16:55;;;;;;;;;;;;;;;27.04;44.28;101511.03;5063057;28;19927;-79
2023/06/26 04:19:20;;;;;;;;;;;;;;;27.12;44.13;101501.88;5063889;28;20408;-79
2023/06/26 04:21:45;;;;;;;;;;;;;;;27.24;43.68;101501.06;5061372;28;20380;-79
2023/06/26 04:24:11;;;;;;;;;;;;;;;27.32;43.84;101502.94;5059929;28;19930;-79
2023/06/26 04:26:37;;;;;;;;;;;;;;;27.40;43.39;101500.06;5060716;28;19946;-79
2023/06/26 04:29:03;;;;;;;;;;;;;;;27.46;43.51;101505.31;5066312;28;19923;-79
2023/06/26 04:31:28;;;;;;;;;;;;;;;27.53;43.24;101500.06;5065116;28;19916;-79
2023/06/26 04:33:54;;;;;;;;;;;;;;;27.61;42.95;101501.88;5060855;28;19928;-79
2023/06/26 04:36:20;;;;;;;;;;;;;;;27.66;42.92;101504.44;5061664;28;19932;-79
2023/06/26 04:38:45;;;;;;;;;;;;;;;27.69;42.96;101501.81;5065552;28;19934;-79
2023/06/26 04:41:11;;;;;;;;;;;;;;;27.72;42.89;101505.81;5060666;28;19992;-79
2023/06/26 04:43:36;;;;;;;;;;;;;;;27.74;43.07;101513.72;5064065;28;20007;-79
2023/06/26 04:46:05;;;;;;;;;;;;;;;27.72;42.88;101508.56;5061660;28;19939;-79
2023/06/26 04:48:31;;;;;;;;;;;;;;;27.68;42.64;101513.97;5065944;28;19917;-78
2023/06/26 04:50:56;;;;;;;;;;;;;;;27.64;42.87;101513.03;5061334;28;19950;-79
2023/06/26 04:53:22;;;;;;;;;;;;;;;27.64;42.56;101509.47;5061191;28;20406;-79
2023/06/26 04:55:48;;;;;;;;;;;;;;;27.67;42.88;101500.53;5059466;28;19916;-78
2023/06/26 04:58:14;;;;;;;;;;;;;;;27.73;42.93;101501.09;5062165;28;19925;-79
2023/06/26 05:00:42;;;;;;;;;;;;;;;27.76;42.89;101495.69;5063262;28;19924;-78
2023/06/26 05:03:07;;;;;;;;;;;;;;;27.82;42.51;101501.75;5063606;28;20011;-78
2023/06/26 05:05:32;;;;;;;;;;;;;;;27.87;42.65;101509.81;5063336;28;20448;-80
2023/06/26 05:07:58;;;;;;;;;;;;;;;27.92;42.59;101504.84;5062241;28;19916;-78
2023/06/26 05:10:23;;;;;;;;;;;;;;;27.95;42.47;101506.91;5065022;28;20601;-79
2023/06/26 05:12:48;;;;;;;;;;;;;;;28.02;42.60;101506.34;5064655;28;19923;-78
2023/06/26 05:15:14;;;;;;;;;;;;;;;28.09;42.25;101506.53;5060579;28;19932;-79
2023/06/26 05:17:39;;;;;;;;;;;;;;;28.12;42.39;101508.59;5061935;28;19924;-78
2023/06/26 05:20:05;;;;;;;;;;;;;;;28.14;42.10;101499.97;5060472;28;19920;-78
2023/06/26 05:22:32;;;;;;;;;;;;;;;28.19;42.41;101508.81;5062510;28;20387;-78
2023/06/26 05:24:59;;;;;;;;;;;;;;;28.26;42.21;101508.25;5060521;28;19920;-78
2023/06/26 05:27:24;;;;;;;;;;;;;;;28.32;42.22;101509.59;5057368;28;19975;-79
2023/06/26 05:29:50;;;;;;;;;;;;;;;28.38;42.21;101505.44;5063681;28;19967;-79
2023/06/26 05:32:17;;;;;;;;;;;;;;;28.44;42.09;101504.03;5058584;28;19921;-78
2023/06/26 05:34:43;;;;;;;;;;;;;;;28.50;41.91;101502.63;5060037;28;19924;-78
2023/06/26 05:37:09;;;;;;;;;;;;;;;28.57;41.88;101500.09;5064184;28;19923;-79
2023/06/26 05:39:34;;;;;;;;;;;;;;;28.64;41.88;101490.38;5060550;28;19916;-79
2023/06/26 05:42:00;;;;;;;;;;;;;;;28.67;41.83;101492.44;5060761;28;19927;-79
2023/06/26 05:44:25;;;;;;;;;;;;;;;28.68;41.61;101478.28;5060389;28;19952;-78
2023/06/26 05:46:50;;;;;;;;;;;;;;;28.68;41.92;101467.25;5055990;28;19924;-79
2023/06/26 05:49:16;;;;;;;;;;;;;;;28.67;41.88;101475.91;5063747;28;19999;-78
2023/06/26 05:51:41;;;;;;;;;;;;;;;28.62;41.90;101465.13;5064875;28;19942;-78
2023/06/26 05:54:07;;;;;;;;;;;;;;;28.68;42.17;101474.75;5061698;28;20078;-79
2023/06/26 05:56:33;;;;;;;;;;;;;;;28.79;41.93;101470.31;5066216;28;20465;-80
2023/06/26 05:58:58;;;;;;;;;;;;;;;28.91;41.76;101478.56;5055159;28;20024;-80
2023/06/26 06:01:24;;;;;;;;;;;;;;;29.06;41.62;101477.72;5057276;28;19920;-80
2023/06/26 06:03:49;;;;;;;;;;;;;;;29.22;41.37;101479.69;5058334;28;20354;-80
2023/06/26 06:06:15;;;;;;;;;;;;;;;29.33;41.04;101472.47;5058454;28;19927;-80
2023/06/26 06:08:41;;;;;;;;;;;;;;;29.43;41.07;101477.44;5060739;28;19917;-80
2023/06/26 06:11:06;;;;;;;;;;;;;;;29.50;40.76;101476.84;5058532;28;19916;-79
2023/06/26 06:13:31;;;;;;;;;;;;;;;29.60;40.95;101488.13;5058174;28;19920;-80
2023/06/26 06:15:57;;;;;;;;;;;;;;;29.67;40.22;101482.78;5059058;28;20307;-80
2023/06/26 06:18:22;;;;;;;;;;;;;;;29.70;40.64;101479.28;5057808;28;19966;-79
2023/06/26 06:20:48;;;;;;;;;;;;;;;29.79;40.36;101479.88;5060470;28;19916;-81
2023/06/26 06:23:13;;;;;;;;;;;;;;;29.84;40.22;101459.47;5056760;28;19928;-80
2023/06/26 06:25:39;;;;;;;;;;;;;;;29.94;39.96;101458.09;5052987;28;19916;-79
2023/06/26 06:28:04;;;;;;;;;;;;;;;30.06;40.16;101463.50;5059947;28;19921;-80
2023/06/26 06:30:30;;;;;;;;;;;;;;;30.21;40.00;101468.16;5059200;28;20338;-81
2023/06/26 06:32:55;;;;;;;;;;;;;;;30.24;39.77;101459.16;5057469;28;20372;-81
2023/06/26 06:35:20;;;;;;;;;;;;;;;30.32;39.77;101455.34;5062005;28;19970;-81
2023/06/26 06:37:46;;;;;;;;;;;;;;;30.38;39.77;101456.66;5065274;28;20022;-81
2023/06/26 06:40:11;;;;;;;;;;;;;;;30.45;39.79;101455.19;5063401;28;19917;-81
2023/06/26 06:42:37;;;;;;;;;;;;;;;30.58;40.05;101449.13;5062649;28;19921;-81
2023/06/26 06:45:03;;;;;;;;;;;;;;;30.71;39.76;101446.22;5059997;28;19942;-81
2023/06/26 06:47:28;;;;;;;;;;;;;;;30.76;39.31;101449.47;5065480;28;20292;-81
2023/06/26 06:49:54;;;;;;;;;;;;;;;30.83;39.49;101448.78;5064439;28;19924;-81
2023/06/26 06:52:19;;;;;;;;;;;;;;;30.87;39.14;101446.88;5066017;28;20439;-80
2023/06/26 06:54:55;;;;;;;;;;;;;;;30.90;38.98;101440.63;5063255;28;20012;-81
2023/06/26 06:57:21;;;;;;;;;;;;;;;30.95;39.25;101440.31;5060473;28;19924;-80
2023/06/26 06:59:47;;;;;;;;;;;;;;;31.00;38.85;101436.44;5068631;28;19928;-80
2023/06/26 07:02:12;;;;;;;;;;;;;;;31.08;39.11;101441.72;5069082;28;19920;-81
2023/06/26 07:04:37;;;;;;;;;;;;;;;31.20;38.87;101430.44;5064093;28;19986;-81
2023/06/26 07:07:03;;;;;;;;;;;;;;;31.39;38.99;101426.78;5064598;28;19929;-80
2023/06/26 07:09:28;;;;;;;;;;;;;;;31.61;38.52;101432.63;5067835;28;19917;-80
2023/06/26 07:11:54;;;;;;;;;;;;;;;31.76;37.95;101431.66;5062107;28;19960;-80
2023/06/26 07:14:19;;;;;;;;;;;;;;;31.92;38.41;101429.50;5064819;28;19973;-80
2023/06/26 07:16:44;;;;;;;;;;;;;;;32.08;37.61;101426.50;5064532;28;19917;-80
2023/06/26 07:19:10;;;;;;;;;;;;;;;32.15;37.64;101432.97;5064719;28;19920;-81
2023/06/26 07:21:35;;;;;;;;;;;;;;;32.19;37.56;101429.41;5065854;28;20389;-82
2023/06/26 07:24:00;;;;;;;;;;;;;;;32.23;37.75;101425.50;5063167;28;19924;-82
2023/06/26 07:26:25;;;;;;;;;;;;;;;32.28;37.50;101424.38;5067206;28;20639;-81
2023/06/26 07:28:51;;;;;;;;;;;;;;;32.39;37.65;101428.09;5065330;28;20397;-81
2023/06/26 07:31:16;;;;;;;;;;;;;;;32.53;37.25;101427.44;5064746;28;19921;-81
2023/06/26 07:33:42;;;;;;;;;;;;;;;32.63;37.61;101415.63;5062013;28;19916;-81
2023/06/26 07:36:07;;;;;;;;;;;;;;;32.73;37.00;101421.28;5062146;28;19931;-80
2023/06/26 07:38:32;;;;;;;;;;;;;;;32.86;37.09;101419.03;5064036;28;20398;-80
2023/06/26 07:40:58;;;;;;;;;;;;;;;33.01;36.56;101419.94;5063843;28;20694;-80
2023/06/26 07:43:23;;;;;;;;;;;;;;;33.07;36.16;101417.63;5062751;28;19980;-80
2023/06/26 07:45:51;;;;;;;;;;;;;;;33.10;36.31;101417.63;5062484;28;20442;-80
2023/06/26 07:48:16;;;;;;;;;;;;;;;33.23;36.54;101413.38;5064042;28;19920;-81
2023/06/26 07:50:41;;;;;;;;;;;;;;;33.33;36.06;101412.66;5064897;28;20620;-80
2023/06/26 07:53:07;;;;;;;;;;;;;;;33.44;36.31;101411.94;5065071;28;19925;-81
2023/06/26 07:55:32;;;;;;;;;;;;;;;33.48;36.00;101409.97;5061185;28;19979;-80
2023/06/26 07:57:57;;;;;;;;;;;;;;;33.52;35.98;101410.75;5061348;28;19928;-78
2023/06/26 08:00:23;;;;;;;;;;;;;;;33.58;35.87;101415.59;5066455;28;20396;-77
2023/06/26 08:02:48;;;;;;;;;;;;;;;33.69;36.10;101409.25;5059878;28;20022;-78
2023/06/26 08:05:14;;;;;;;;;;;;;;;33.82;35.72;101410.50;5061054;28;19921;-78
2023/06/26 08:07:39;;;;;;;;;;;;;;;33.90;35.91;101404.59;5062453;28;19973;-78
2023/06/26 08:10:05;;;;;;;;;;;;;;;33.98;35.88;101404.66;5060593;28;19917;-78
2023/06/26 08:12:30;;;;;;;;;;;;;;;34.06;35.34;101400.69;5063630;28;20017;-80
2023/06/26 08:14:55;;;;;;;;;;;;;;;34.11;35.50;101403.91;5065258;28;19920;-80
2023/06/26 08:17:21;;;;;;;;;;;;;;;34.16;35.29;101399.94;5063354;28;19930;-80
2023/06/26 08:19:46;;;;;;;;;;;;;;;34.22;35.41;101393.56;5063303;28;20410;-80
2023/06/26 08:22:11;;;;;;;;;;;;;;;34.32;35.31;101385.66;5067432;28;19931;-80
2023/06/26 08:24:37;;;;;;;;;;;;;;;34.48;34.84;101397.25;5065306;28;19917;-80
2023/06/26 08:27:03;;;;;;;;;;;;;;;34.64;34.48;101388.47;5062304;28;19921;-80
2023/06/26 08:29:28;;;;;;;;;;;;;;;34.74;34.04;101391.28;5062999;28;20364;-80
2023/06/26 08:31:54;;;;;;;;;;;;;;;34.75;33.02;101389.28;5065327;28;20039;-80
2023/06/26 08:34:19;;;;;;;;;;;;;;;34.71;34.02;101385.72;5061096;28;20215;-79
2023/06/26 08:36:44;;;;;;;;;;;;;;;34.85;34.00;101374.59;5062604;28;19954;-80
2023/06/26 08:39:10;;;;;;;;;;;;;;;34.98;32.54;101378.53;5062784;28;20019;-80
2023/06/26 08:41:36;;;;;;;;;;;;;;;34.99;33.11;101382.91;5061464;28;19953;-80
2023/06/26 08:44:02;;;;;;;;;;;;;;;34.97;33.06;101371.38;5064101;28;20842;-79
2023/06/26 08:46:28;;;;;;;;;;;;;;;35.00;32.82;101372.56;5063348;28;19974;-80
2023/06/26 08:48:57;;;;;;;;;;;;;;;35.10;32.96;101375.34;5060582;28;19924;-80
2023/06/26 08:51:25;;;;;;;;;;;;;;;35.24;33.34;101370.94;5061946;28;19920;-80
2023/06/26 08:53:58;;;;;;;;;;;;;;;35.32;32.16;101364.13;5068474;28;19956;-80
2023/06/26 08:56:24;;;;;;;;;;;;;;;35.30;32.61;101369.31;5065737;28;20372;-79
2023/06/26 08:58:49;;;;;;;;;;;;;;;35.43;32.57;101364.94;5060625;28;20058;-79
2023/06/26 09:01:15;;;;;;;;;;;;;;;35.51;32.47;101365.69;5059422;28;20366;-80
2023/06/26 09:03:41;;;;;;;;;;;;;;;35.64;32.18;101362.06;5061208;28;19928;-79
2023/06/26 09:06:06;;;;;;;;;;;;;;;35.78;32.21;101361.22;5062514;28;19924;-79
2023/06/26 09:08:32;;;;;;;;;;;;;;;35.85;31.81;101354.81;5058909;28;19924;-80
2023/06/26 09:10:57;;;;;;;;;;;;;;;35.95;31.38;101356.75;5060613;28;20368;-80
2023/06/26 09:13:22;;;;;;;;;;;;;;;36.12;31.68;101355.06;5064450;28;20559;-79
2023/06/26 09:15:48;;;;;;;;;;;;;;;36.24;30.45;101352.56;5058747;28;20819;-80
2023/06/26 09:18:16;;;;;;;;;;;;;;;36.12;30.37;101355.06;5054468;28;20035;-80
2023/06/26 09:20:41;;;;;;;;;;;;;;;35.94;30.40;101346.81;5061174;28;19924;-79
2023/06/26 09:23:07;;;;;;;;;;;;;;;35.93;30.24;101343.22;5059981;28;19929;-79
2023/06/26 09:25:33;;;;;;;;;;;;;;;36.01;30.78;101338.38;5058112;28;20416;-80
2023/06/26 09:27:58;;;;;;;;;;;;;;;36.18;31.08;101336.69;5061602;28;19916;-80
2023/06/26 09:30:24;;;;;;;;;;;;;;;36.31;30.71;101340.56;5060368;28;20398;-79
2023/06/26 09:32:54;;;;;;;;;;;;;;;36.37;30.45;101338.94;5060045;28;19961;-79
2023/06/26 09:35:19;;;;;;;;;;;;;;;36.41;30.13;101338.91;5060393;28;19978;-80
2023/06/26 09:37:44;;;;;;;;;;;;;;;36.48;30.24;101342.47;5059751;28;19916;-79
2023/06/26 09:40:10;;;;;;;;;;;;;;;36.65;30.08;101337.91;5059174;28;19995;-80
2023/06/26 09:42:35;;;;;;;;;;;;;;;36.88;29.90;101323.34;5058736;28;20499;-80
2023/06/26 09:45:02;;;;;;;;;;;;;;;37.03;29.76;101332.38;5057942;28;19916;-79
2023/06/26 09:47:29;;;;;;;;;;;;;;;37.17;29.97;101324.63;5057722;28;19916;-79
2023/06/26 09:49:55;;;;;;;;;;;;;;;37.33;29.80;101317.66;5057229;28;20011;-80
2023/06/26 09:52:20;;;;;;;;;;;;;;;37.53;29.22;101318.63;5061084;28;20011;-79
2023/06/26 09:54:46;;;;;;;;;;;;;;;37.63;29.28;101312.09;5064664;28;19926;-79
2023/06/26 09:57:20;;;;;;;;;;;;;;;37.66;28.35;101310.44;5059664;28;19960;-80
2023/06/26 09:59:46;;;;;;;;;;;;;;;37.61;28.79;101308.94;5057701;28;20003;-79
2023/06/26 10:02:11;;;;;;;;;;;;;;;37.63;28.05;101300.91;5062087;28;19920;-79
2023/06/26 10:04:37;;;;;;;;;;;;;;;37.69;29.05;101304.00;5058419;28;20022;-79
2023/06/26 10:07:05;;;;;;;;;;;;;;;37.79;28.54;101294.72;5059047;28;19951;-79
2023/06/26 10:09:31;;;;;;;;;;;;;;;37.92;28.27;101301.31;5056097;28;20038;-79
2023/06/26 10:11:59;;;;;;;;;;;;;;;38.05;28.43;101293.91;5058484;28;20011;-79
2023/06/26 10:14:31;;;;;;;;;;;;;;;38.16;28.03;101293.72;5062479;28;19966;-80
2023/06/26 10:16:58;;;;;;;;;;;;;;;38.19;28.26;101289.31;5057047;28;20368;-79
2023/06/26 10:19:26;;;;;;;;;;;;;;;38.17;27.71;101294.53;5062466;28;20025;-79
2023/06/26 10:21:54;;;;;;;;;;;;;;;38.06;27.93;101284.31;5060365;28;19921;-83
2023/06/26 10:24:24;;;;;;;;;;;;;;;37.99;28.04;101290.00;5058549;28;20478;-78
2023/06/26 10:26:57;;;;;;;;;;;;;;;38.01;28.02;101276.38;5060347;28;20420;-78
2023/06/26 10:29:23;;;;;;;;;;;;;;;38.20;27.90;101271.31;5057381;28;19964;-79
2023/06/26 10:31:51;;;;;;;;;;;;;;;38.23;27.61;101270.47;5055176;28;19924;-80
2023/06/26 10:34:16;;;;;;;;;;;;;;;38.32;27.36;101274.31;5056365;28;19921;-79
2023/06/26 10:36:42;;;;;;;;;;;;;;;38.29;27.50;101268.78;5057851;28;20499;-79
2023/06/26 10:39:07;;;;;;;;;;;;;;;38.37;27.85;101267.41;5059361;28;19938;-80
2023/06/26 10:41:36;;;;;;;;;;;;;;;38.50;27.25;101262.78;5057207;28;19924;-79
2023/06/26 10:44:02;;;;;;;;;;;;;;;38.50;27.57;101259.19;5054265;28;19943;-78
2023/06/26 10:46:29;;;;;;;;;;;;;;;38.59;27.10;101254.59;5057304;28;19917;-77
2023/06/26 10:48:59;;;;;;;;;;;;;;;38.63;27.26;101254.56;5062122;28;20395;-77
2023/06/26 10:51:25;;;;;;;;;;;;;;;38.49;27.02;101255.59;5057094;28;19928;-79
2023/06/26 10:53:53;;;;;;;;;;;;;;;38.38;26.86;101257.81;5059232;28;20300;-79
2023/06/26 10:56:19;;;;;;;;;;;;;;;38.25;26.63;101248.47;5057018;28;19917;-80
2023/06/26 10:58:46;;;;;;;;;;;;;;;38.06;26.89;101242.34;5058995;28;20299;-79
2023/06/26 11:01:14;;;;;;;;;;;;;;;38.15;27.35;101238.19;5057057;28;19948;-79
2023/06/26 11:03:41;;;;;;;;;;;;;;;38.33;26.46;101241.50;5059442;28;19933;-79
2023/06/26 11:06:13;;;;;;;;;;;;;;;38.39;26.82;101240.56;5061265;28;19925;-80
2023/06/26 11:08:48;;;;;;;;;;;;;;;38.54;26.63;101231.91;5059812;28;19963;-79
2023/06/26 11:11:14;;;;;;;;;;;;;;;38.70;26.65;101237.63;5059520;28;19916;-79
2023/06/26 11:13:44;;;;;;;;;;;;;;;38.74;26.53;101227.16;5060485;28;20483;-79
2023/06/26 11:16:11;;;;;;;;;;;;;;;38.76;26.38;101223.91;5059933;28;19931;-79
2023/06/26 11:18:37;;;;;;;;;;;;;;;38.85;26.25;101215.75;5059170;28;19927;-79
2023/06/26 11:21:07;;;;;;;;;;;;;;;38.96;25.78;101213.50;5056592;28;19920;-79
2023/06/26 11:23:33;;;;;;;;;;;;;;;39.10;25.82;101218.03;5062079;28;20007;-79
2023/06/26 11:26:12;;;;;;;;;;;;;;;38.98;26.02;101219.47;5059225;28;20406;-79
2023/06/26 11:28:37;;;;;;;;;;;;;;;39.04;26.31;101216.94;5059983;28;20019;-78
2023/06/26 11:31:03;;;;;;;;;;;;;;;39.20;25.98;101212.22;5063638;28;20038;-78
2023/06/26 11:33:28;;;;;;;;;;;;;;;39.43;25.79;101204.88;5061754;28;19926;-79
2023/06/26 11:35:53;;;;;;;;;;;;;;;39.60;25.63;101203.72;5064312;28;20015;-79
2023/06/26 11:38:19;;;;;;;;;;;;;;;39.65;25.08;101196.78;5060781;28;20343;-79
2023/06/26 11:40:44;;;;;;;;;;;;;;;39.55;25.05;101195.81;5063562;28;19956;-79
2023/06/26 11:43:09;;;;;;;;;;;;;;;39.44;24.95;101184.03;5062382;28;20111;-79
2023/06/26 11:45:35;;;;;;;;;;;;;;;39.49;25.01;101186.31;5062562;28;19921;-79
2023/06/26 11:48:01;;;;;;;;;;;;;;;39.46;25.46;101182.38;5061346;28;19975;-79
2023/06/26 11:50:27;;;;;;;;;;;;;;;39.61;25.26;101180.03;5060875;28;19955;-83
2023/06/26 11:52:59;;;;;;;;;;;;;;;39.82;25.75;101176.69;5057596;28;19920;-78
2023/06/26 11:55:25;;;;;;;;;;;;;;;39.99;25.16;101171.88;5055146;28;19983;-78
2023/06/26 11:57:53;;;;;;;;;;;;;;;40.13;25.12;101167.94;5054870;28;19925;-79
2023/06/26 12:00:19;;;;;;;;;;;;;;;40.26;24.92;101159.56;5056542;28;20404;-79
2023/06/26 12:02:46;;;;;;;;;;;;;;;40.16;23.82;101167.03;5062711;28;19924;-79
2023/06/26 12:05:11;;;;;;;;;;;;;;;40.00;24.46;101167.06;5058820;28;20605;-79
2023/06/26 12:07:37;;;;;;;;;;;;;;;39.79;24.24;101159.97;5057298;28;20007;-80
2023/06/26 12:10:03;;;;;;;;;;;;;;;39.80;24.30;101159.53;5060760;28;19917;-79
2023/06/26 12:12:29;;;;;;;;;;;;;;;39.92;24.15;101154.44;5054793;28;21089;-80
2023/06/26 12:14:55;;;;;;;;;;;;;;;39.99;24.46;101145.84;5060689;28;19921;-79
2023/06/26 12:17:22;;;;;;;;;;;;;;;40.09;23.70;101139.19;5062313;28;19973;-79
2023/06/26 12:19:48;;;;;;;;;;;;;;;40.18;24.21;101131.69;5062194;28;20007;-79
2023/06/26 12:22:13;;;;;;;;;;;;;;;40.35;24.34;101124.00;5060911;28;20035;-79
2023/06/26 12:24:39;;;;;;;;;;;;;;;40.39;24.08;101119.09;5061741;28;20426;-79
2023/06/26 12:27:08;;;;;;;;;;;;;;;40.49;24.00;101117.22;5059898;28;20809;-79
2023/06/26 12:29:33;;;;;;;;;;;;;;;40.52;24.10;101121.16;5053898;28;20003;-79